createdAt,value
2017-10-29T00:01:55.572Z,6.50
2017-10-29T00:04:21.787Z,11.67
2017-10-29T00:06:48.034Z,8.37
2017-10-29T00:09:14.271Z,8.00
2017-10-29T00:11:40.497Z,6.47
2017-10-29T00:14:06.767Z,5.47
2017-10-29T00:16:32.978Z,8.63
2017-10-29T00:18:59.199Z,5.07
2017-10-29T00:21:25.461Z,7.27
2017-10-29T00:23:51.684Z,9.53
2017-10-29T00:26:17.906Z,4.57
2017-10-29T00:28:44.169Z,6.97
2017-10-29T00:31:10.410Z,7.97
2017-10-29T00:33:36.633Z,7.07
2017-10-29T00:36:02.900Z,5.90
2017-10-29T00:38:29.125Z,6.10
2017-10-29T00:40:55.447Z,6.60
2017-10-29T00:43:21.716Z,10.10
2017-10-29T00:45:47.940Z,11.50
2017-10-29T00:48:14.169Z,8.83
2017-10-29T00:50:40.415Z,11.00
2017-10-29T00:53:06.629Z,6.53
2017-10-29T00:55:32.860Z,4.77
2017-10-29T00:57:59.124Z,5.10
2017-10-29T01:00:25.349Z,8.10
2017-10-29T01:02:51.703Z,6.53
2017-10-29T01:05:18.160Z,5.50
2017-10-29T01:07:44.374Z,4.60
2017-10-29T01:10:10.604Z,8.63
2017-10-29T01:12:36.885Z,6.80
2017-10-29T01:15:03.116Z,5.47
2017-10-29T01:17:29.341Z,8.37
2017-10-29T01:19:55.581Z,4.40
2017-10-29T01:22:21.810Z,12.13
2017-10-29T01:24:48.055Z,5.23
2017-10-29T01:27:14.313Z,4.30
2017-10-29T01:29:40.590Z,3.70
2017-10-29T01:32:06.820Z,16.60
2017-10-29T01:34:33.075Z,8.33
2017-10-29T01:36:59.294Z,5.23
2017-10-29T01:39:25.517Z,4.43
2017-10-29T01:41:51.786Z,4.83
2017-10-29T01:44:18.014Z,4.60
2017-10-29T01:46:44.230Z,3.70
2017-10-29T01:49:10.490Z,9.20
2017-10-29T01:51:36.701Z,17.67
2017-10-29T01:54:02.916Z,7.50
2017-10-29T01:56:29.166Z,4.10
2017-10-29T01:58:55.391Z,7.83
2017-10-29T02:01:21.612Z,9.90
2017-10-29T02:03:47.855Z,6.20
2017-10-29T02:06:14.129Z,8.77
2017-10-29T02:08:40.495Z,6.10
2017-10-29T02:11:06.965Z,6.10
2017-10-29T02:13:33.558Z,8.43
2017-10-29T02:15:59.969Z,9.80
2017-10-29T02:18:26.242Z,6.10
2017-10-29T02:20:52.450Z,5.23
2017-10-29T02:23:18.653Z,6.10
2017-10-29T02:25:44.922Z,6.33
2017-10-29T02:28:11.155Z,6.20
2017-10-29T02:30:37.384Z,11.00
2017-10-29T02:33:03.653Z,4.30
2017-10-29T02:35:29.886Z,10.67
2017-10-29T02:37:56.101Z,5.50
2017-10-29T02:40:22.374Z,5.03
2017-10-29T02:42:48.730Z,5.50
2017-10-29T02:45:14.963Z,5.30
2017-10-29T02:47:41.236Z,5.90
2017-10-29T02:50:07.622Z,4.37
2017-10-29T02:52:34.252Z,4.30
2017-10-29T02:55:00.892Z,7.00
2017-10-29T02:57:27.310Z,5.10
2017-10-29T02:59:53.749Z,4.83
2017-10-29T03:02:20.403Z,5.67
2017-10-29T03:04:46.631Z,4.23
2017-10-29T03:07:12.867Z,5.70
2017-10-29T03:09:39.147Z,6.53
2017-10-29T03:12:05.500Z,4.90
2017-10-29T03:14:31.737Z,4.90
2017-10-29T03:16:57.995Z,5.73
2017-10-29T03:19:24.200Z,5.93
2017-10-29T03:21:50.408Z,5.57
2017-10-29T03:24:16.676Z,7.93
2017-10-29T03:26:42.903Z,10.30
2017-10-29T03:29:09.114Z,7.53
2017-10-29T03:31:35.359Z,8.20
2017-10-29T03:34:01.592Z,14.30
2017-10-29T03:36:27.798Z,9.63
2017-10-29T03:38:54.061Z,8.37
2017-10-29T03:41:20.288Z,5.17
2017-10-29T03:43:46.547Z,5.43
2017-10-29T03:46:12.793Z,7.73
2017-10-29T03:48:39.006Z,5.20
2017-10-29T03:51:05.383Z,8.73
2017-10-29T03:53:31.868Z,6.30
2017-10-29T03:55:58.312Z,6.10
2017-10-29T03:58:24.525Z,10.90
2017-10-29T04:00:50.788Z,10.40
2017-10-29T04:03:17.001Z,5.90
2017-10-29T04:05:43.357Z,6.10
2017-10-29T04:08:09.617Z,7.90
2017-10-29T04:10:35.858Z,5.00
2017-10-29T04:13:02.086Z,6.20
2017-10-29T04:15:28.339Z,7.40
2017-10-29T04:17:54.568Z,22.50
2017-10-29T04:20:20.800Z,35.37
2017-10-29T04:22:47.064Z,29.40
2017-10-29T04:25:13.407Z,20.00
2017-10-29T04:27:39.632Z,14.80
2017-10-29T04:30:05.882Z,15.37
2017-10-29T04:32:32.102Z,9.70
2017-10-29T04:34:58.322Z,7.33
2017-10-29T04:37:24.581Z,9.23
2017-10-29T04:39:50.816Z,11.83
2017-10-29T04:42:17.050Z,10.83
2017-10-29T04:44:43.288Z,10.40
2017-10-29T04:47:09.497Z,17.97
2017-10-29T04:49:35.735Z,17.47
2017-10-29T04:52:02.025Z,8.90
2017-10-29T04:54:28.340Z,14.30
2017-10-29T04:56:54.556Z,11.27
2017-10-29T04:59:20.827Z,10.30
2017-10-29T05:01:47.071Z,8.37
2017-10-29T05:04:13.315Z,12.60
2017-10-29T05:06:39.565Z,12.13
2017-10-29T05:09:05.786Z,7.00
2017-10-29T05:11:32.006Z,10.57
2017-10-29T05:13:58.255Z,6.73
2017-10-29T05:16:24.547Z,13.70
2017-10-29T05:18:50.769Z,4.97
2017-10-29T05:21:17.032Z,6.63
2017-10-29T05:23:43.368Z,4.93
2017-10-29T05:26:09.738Z,10.30
2017-10-29T05:28:36.376Z,6.43
2017-10-29T05:31:02.997Z,11.90
2017-10-29T05:33:29.383Z,9.43
2017-10-29T05:35:55.628Z,6.47
2017-10-29T05:38:21.843Z,6.07
2017-10-29T05:40:48.073Z,8.57
2017-10-29T05:43:14.332Z,3.83
2017-10-29T05:45:40.536Z,16.30
2017-10-29T05:48:06.757Z,8.73
2017-10-29T05:50:33.019Z,7.20
2017-10-29T05:52:59.276Z,10.10
2017-10-29T05:55:25.487Z,4.70
2017-10-29T05:57:51.903Z,10.40
2017-10-29T06:00:18.118Z,9.83
2017-10-29T06:02:44.339Z,6.70
2017-10-29T06:05:10.605Z,4.47
2017-10-29T06:07:36.835Z,7.47
2017-10-29T06:10:03.057Z,10.67
2017-10-29T06:12:29.315Z,8.60
2017-10-29T06:14:55.536Z,6.00
2017-10-29T06:17:21.767Z,11.20
2017-10-29T06:19:48.011Z,6.30
2017-10-29T06:22:14.243Z,6.60
2017-10-29T06:24:40.464Z,9.40
2017-10-29T06:27:06.732Z,9.07
2017-10-29T06:29:32.965Z,10.83
2017-10-29T06:31:59.185Z,4.77
2017-10-29T06:34:25.411Z,7.40
2017-10-29T06:36:51.627Z,3.90
2017-10-29T06:39:17.837Z,6.20
2017-10-29T06:41:44.124Z,8.70
2017-10-29T06:44:10.342Z,11.03
2017-10-29T06:46:36.565Z,11.60
2017-10-29T06:49:02.927Z,8.23
2017-10-29T06:51:29.166Z,5.00
2017-10-29T06:53:55.407Z,7.57
2017-10-29T06:56:21.661Z,8.00
2017-10-29T06:58:47.881Z,9.47
2017-10-29T07:01:14.101Z,3.90
2017-10-29T07:03:40.347Z,8.10
2017-10-29T07:06:06.597Z,4.77
2017-10-29T07:08:32.819Z,38.90
2017-10-29T07:10:59.088Z,3.43
2017-10-29T07:13:25.313Z,15.13
2017-10-29T07:15:51.644Z,19.10
2017-10-29T07:18:17.924Z,8.90
2017-10-29T07:20:44.160Z,7.90
2017-10-29T07:23:10.380Z,6.83
2017-10-29T07:25:36.632Z,11.70
2017-10-29T07:28:02.858Z,10.43
2017-10-29T07:30:29.096Z,3.30
2017-10-29T07:32:55.359Z,5.10
2017-10-29T07:35:21.596Z,3.70
2017-10-29T07:37:47.881Z,10.10
2017-10-29T07:40:14.151Z,6.03
2017-10-29T07:42:40.357Z,10.13
2017-10-29T07:45:06.610Z,11.07
2017-10-29T07:47:32.862Z,5.37
2017-10-29T07:49:59.083Z,6.83
2017-10-29T07:52:25.531Z,10.70
2017-10-29T07:54:51.994Z,5.50
2017-10-29T07:57:18.373Z,7.43
2017-10-29T07:59:45.006Z,5.33
2017-10-29T08:02:11.271Z,4.30
2017-10-29T08:04:37.489Z,7.80
2017-10-29T08:07:03.896Z,8.30
2017-10-29T08:09:30.149Z,3.80
2017-10-29T08:11:56.404Z,6.63
2017-10-29T08:14:22.628Z,5.47
2017-10-29T08:16:48.892Z,6.93
2017-10-29T08:19:15.229Z,4.97
2017-10-29T08:21:41.444Z,3.80
2017-10-29T08:24:07.682Z,3.30
2017-10-29T08:26:33.913Z,5.57
2017-10-29T08:29:00.150Z,5.17
2017-10-29T08:31:26.777Z,6.90
2017-10-29T08:33:53.195Z,5.87
2017-10-29T08:36:19.454Z,2.67
2017-10-29T08:38:45.701Z,5.70
2017-10-29T08:41:11.915Z,2.30
2017-10-29T08:43:38.144Z,7.30
2017-10-29T08:46:04.388Z,4.47
2017-10-29T08:48:30.594Z,3.23
2017-10-29T08:50:56.826Z,3.40
2017-10-29T08:53:23.081Z,4.47
2017-10-29T08:55:49.312Z,3.17
2017-10-29T08:58:15.720Z,3.33
2017-10-29T09:00:42.332Z,3.37
2017-10-29T09:03:08.789Z,2.53
2017-10-29T09:05:35.432Z,4.00
2017-10-29T09:08:02.033Z,3.57
2017-10-29T09:10:28.452Z,8.97
2017-10-29T09:12:54.893Z,3.67
2017-10-29T09:15:21.312Z,4.70
2017-10-29T09:17:47.753Z,2.90
2017-10-29T09:20:14.196Z,3.60
2017-10-29T09:22:40.875Z,2.90
2017-10-29T09:25:07.481Z,2.97
2017-10-29T09:27:33.917Z,5.10
2017-10-29T09:30:00.438Z,4.03
2017-10-29T09:32:26.881Z,3.03
2017-10-29T09:34:53.396Z,17.30
2017-10-29T09:37:19.840Z,3.73
2017-10-29T09:39:46.114Z,2.20
2017-10-29T09:42:12.730Z,2.30
2017-10-29T09:44:39.250Z,2.80
2017-10-29T09:47:05.691Z,2.97
2017-10-29T09:49:32.051Z,3.60
2017-10-29T09:51:58.545Z,2.10
2017-10-29T09:54:24.988Z,15.77
2017-10-29T09:56:51.342Z,3.30
2017-10-29T09:59:17.579Z,5.37
2017-10-29T10:01:43.863Z,4.97
2017-10-29T10:04:10.244Z,3.27
2017-10-29T10:06:36.723Z,1.83
2017-10-29T10:09:03.167Z,2.20
2017-10-29T10:11:29.538Z,5.77
2017-10-29T10:13:56.028Z,2.33
2017-10-29T10:16:22.465Z,5.17
2017-10-29T10:18:48.881Z,7.60
2017-10-29T10:21:15.263Z,4.17
2017-10-29T10:23:41.667Z,4.07
2017-10-29T10:26:08.109Z,3.57
2017-10-29T10:28:34.782Z,3.60
2017-10-29T10:31:01.392Z,2.80
2017-10-29T10:33:27.811Z,1.27
2017-10-29T10:35:54.477Z,5.57
2017-10-29T10:38:20.894Z,7.70
2017-10-29T10:40:47.154Z,7.73
2017-10-29T10:43:13.782Z,3.40
2017-10-29T10:45:40.022Z,2.20
2017-10-29T10:48:06.451Z,2.33
2017-10-29T10:50:32.956Z,6.53
2017-10-29T10:52:59.375Z,4.67
2017-10-29T10:55:25.815Z,1.97
2017-10-29T10:57:52.332Z,3.40
2017-10-29T11:00:18.626Z,5.70
2017-10-29T11:02:45.240Z,4.00
2017-10-29T11:05:11.896Z,2.90
2017-10-29T11:07:38.502Z,5.07
2017-10-29T11:10:04.742Z,2.93
2017-10-29T11:12:31.001Z,3.37
2017-10-29T11:14:57.474Z,4.17
2017-10-29T11:17:24.170Z,9.10
2017-10-29T11:19:50.659Z,2.83
2017-10-29T11:22:16.885Z,4.03
2017-10-29T11:24:43.112Z,10.17
2017-10-29T11:27:09.393Z,2.00
2017-10-29T11:29:35.605Z,2.33
2017-10-29T11:32:01.838Z,3.40
2017-10-29T11:34:28.340Z,2.40
2017-10-29T11:36:54.916Z,3.23
2017-10-29T11:39:21.201Z,3.70
2017-10-29T11:41:47.667Z,4.20
2017-10-29T11:44:14.061Z,5.03
2017-10-29T11:46:40.270Z,3.33
2017-10-29T11:49:06.525Z,3.33
2017-10-29T11:51:32.730Z,5.03
2017-10-29T11:53:58.960Z,2.40
2017-10-29T11:56:25.232Z,2.90
2017-10-29T11:58:51.438Z,2.67
2017-10-29T12:01:17.703Z,2.70
2017-10-29T12:03:44.034Z,5.77
2017-10-29T12:06:10.389Z,2.20
2017-10-29T12:08:36.631Z,1.30
2017-10-29T12:11:02.905Z,3.23
2017-10-29T12:13:29.257Z,3.33
2017-10-29T12:15:55.485Z,2.17
2017-10-29T12:18:21.765Z,9.13
2017-10-29T12:20:48.144Z,1.60
2017-10-29T12:23:14.386Z,5.50
2017-10-29T12:25:40.652Z,3.77
2017-10-29T12:28:06.880Z,2.50
2017-10-29T12:30:33.095Z,7.80
2017-10-29T12:32:59.355Z,3.73
2017-10-29T12:35:25.571Z,2.10
2017-10-29T12:37:51.874Z,3.33
2017-10-29T12:40:18.185Z,3.77
2017-10-29T12:42:44.425Z,2.50
2017-10-29T12:45:10.671Z,1.83
2017-10-29T12:47:36.933Z,1.67
2017-10-29T12:50:03.159Z,3.30
2017-10-29T12:52:29.391Z,4.33
2017-10-29T12:54:55.746Z,3.80
2017-10-29T12:57:21.999Z,2.70
2017-10-29T12:59:48.226Z,2.53
2017-10-29T13:02:14.556Z,5.33
2017-10-29T13:04:41.265Z,2.53
2017-10-29T13:07:07.526Z,3.70
2017-10-29T13:09:33.804Z,1.87
2017-10-29T13:12:00.036Z,2.60
2017-10-29T13:14:26.276Z,2.83
2017-10-29T13:16:52.531Z,1.60
2017-10-29T13:19:18.760Z,3.33
2017-10-29T13:21:44.986Z,1.50
2017-10-29T13:24:11.230Z,2.30
2017-10-29T13:26:37.458Z,3.50
2017-10-29T13:29:03.673Z,3.70
2017-10-29T13:31:29.923Z,5.90
2017-10-29T13:33:56.407Z,2.90
2017-10-29T13:36:22.630Z,5.40
2017-10-29T13:38:48.898Z,5.00
2017-10-29T13:41:15.184Z,1.90
2017-10-29T13:43:41.575Z,2.43
2017-10-29T13:46:08.209Z,2.10
2017-10-29T13:48:34.835Z,7.63
2017-10-29T13:51:01.246Z,4.20
2017-10-29T13:53:27.538Z,3.93
2017-10-29T13:55:53.915Z,6.07
2017-10-29T13:58:20.329Z,1.70
2017-10-29T14:00:46.771Z,4.80
2017-10-29T14:03:13.139Z,3.43
2017-10-29T14:05:39.623Z,10.60
2017-10-29T14:08:06.073Z,7.47
2017-10-29T14:10:32.489Z,13.60
2017-10-29T14:12:58.829Z,3.70
2017-10-29T14:15:25.374Z,4.63
2017-10-29T14:17:51.789Z,3.20
2017-10-29T14:20:18.230Z,2.87
2017-10-29T14:22:44.674Z,2.03
2017-10-29T14:25:11.115Z,4.70
2017-10-29T14:27:37.534Z,3.23
2017-10-29T14:30:04.215Z,2.87
2017-10-29T14:32:30.442Z,4.70
2017-10-29T14:34:56.936Z,4.90
2017-10-29T14:37:23.376Z,3.33
2017-10-29T14:39:49.892Z,3.57
2017-10-29T14:42:16.336Z,2.80
2017-10-29T14:44:43.000Z,2.40
2017-10-29T14:47:09.453Z,5.27
2017-10-29T14:49:36.063Z,3.23
2017-10-29T14:52:02.730Z,2.10
2017-10-29T14:54:29.220Z,2.10
2017-10-29T14:56:55.799Z,2.30
2017-10-29T14:59:22.428Z,10.03
2017-10-29T15:01:48.874Z,5.90
2017-10-29T15:04:16.560Z,6.63
2017-10-29T15:06:43.030Z,4.27
2017-10-29T15:09:09.468Z,12.33
2017-10-29T15:11:36.041Z,3.10
2017-10-29T15:14:02.648Z,4.50
2017-10-29T15:16:29.098Z,9.47
2017-10-29T15:18:55.491Z,7.97
2017-10-29T15:21:22.185Z,6.63
2017-10-29T15:23:48.796Z,6.60
2017-10-29T15:26:15.241Z,7.40
2017-10-29T15:28:41.894Z,11.53
2017-10-29T15:31:08.530Z,11.37
2017-10-29T15:33:35.147Z,13.60
2017-10-29T15:36:01.602Z,10.50
2017-10-29T15:38:28.244Z,14.57
2017-10-29T15:40:54.868Z,23.93
2017-10-29T15:43:21.355Z,11.40
2017-10-29T15:45:47.819Z,15.20
2017-10-29T15:48:14.371Z,17.53
2017-10-29T15:50:40.787Z,24.07
2017-10-29T15:53:07.080Z,42.57
2017-10-29T15:55:33.669Z,17.37
2017-10-29T15:58:00.322Z,13.70
2017-10-29T16:00:26.577Z,12.23
2017-10-29T16:02:53.055Z,9.20
2017-10-29T16:05:19.414Z,42.50
2017-10-29T16:07:45.646Z,26.83
2017-10-29T16:10:11.967Z,14.00
2017-10-29T16:12:38.589Z,9.67
2017-10-29T16:15:04.839Z,22.23
2017-10-29T16:17:31.222Z,25.90
2017-10-29T16:19:57.665Z,22.30
2017-10-29T16:22:24.133Z,35.97
2017-10-29T16:24:50.643Z,28.00
2017-10-29T16:27:17.067Z,24.40
2017-10-29T16:29:43.508Z,29.57
2017-10-29T16:32:10.084Z,37.50
2017-10-29T16:34:36.516Z,77.10
2017-10-29T16:37:02.952Z,62.07
2017-10-29T16:39:29.576Z,86.73
2017-10-29T16:41:56.226Z,167.97
2017-10-29T16:44:22.859Z,197.20
2017-10-29T16:46:49.326Z,131.83
2017-10-29T16:49:15.920Z,88.57
2017-10-29T16:51:42.575Z,75.73
2017-10-29T16:54:09.072Z,80.83
2017-10-29T16:56:35.493Z,58.57
2017-10-29T16:59:01.936Z,57.73
2017-10-29T17:01:28.374Z,31.63
2017-10-29T17:03:54.821Z,8.50
2017-10-29T17:06:21.177Z,8.70
2017-10-29T17:08:47.701Z,6.43
2017-10-29T17:11:14.194Z,89.27
2017-10-29T17:13:40.638Z,35.47
2017-10-29T17:16:07.079Z,42.03
2017-10-29T17:18:33.749Z,38.43
2017-10-29T17:21:00.365Z,28.23
2017-10-29T17:23:26.784Z,41.23
2017-10-29T17:25:53.253Z,16.33
2017-10-29T17:28:19.923Z,65.90
2017-10-29T17:30:46.330Z,38.63
2017-10-29T17:33:13.149Z,29.17
2017-10-29T17:35:39.584Z,13.77
2017-10-29T17:38:05.993Z,20.00
2017-10-29T17:40:32.673Z,17.20
2017-10-29T17:42:59.291Z,15.30
2017-10-29T17:45:25.727Z,14.70
2017-10-29T17:47:52.387Z,12.83
2017-10-29T17:50:18.816Z,30.23
2017-10-29T17:52:45.306Z,17.13
2017-10-29T17:55:11.567Z,19.23
2017-10-29T17:57:37.778Z,8.17
2017-10-29T18:00:04.132Z,9.47
2017-10-29T18:02:30.781Z,31.30
2017-10-29T18:04:57.216Z,72.20
2017-10-29T18:07:23.848Z,57.27
2017-10-29T18:09:50.472Z,92.93
2017-10-29T18:12:16.864Z,72.53
2017-10-29T18:14:43.308Z,65.20
2017-10-29T18:17:09.953Z,30.20
2017-10-29T18:19:36.423Z,37.17
2017-10-29T18:22:03.067Z,21.50
2017-10-29T18:24:29.560Z,20.10
2017-10-29T18:26:55.949Z,14.17
2017-10-29T18:29:22.367Z,26.37
2017-10-29T18:31:48.803Z,14.47
2017-10-29T18:34:15.422Z,13.13
2017-10-29T18:36:42.075Z,13.10
2017-10-29T18:39:08.707Z,5.23
2017-10-29T18:41:35.100Z,22.80
2017-10-29T18:44:01.544Z,7.40
2017-10-29T18:46:27.828Z,10.20
2017-10-29T18:48:54.026Z,6.90
2017-10-29T18:51:20.307Z,11.23
2017-10-29T18:53:46.877Z,5.13
2017-10-29T18:56:13.346Z,10.57
2017-10-29T18:58:39.771Z,6.90
2017-10-29T19:01:06.262Z,14.83
2017-10-29T19:03:32.847Z,14.43
2017-10-29T19:05:59.486Z,14.80
2017-10-29T19:08:26.111Z,7.07
2017-10-29T19:10:52.521Z,7.00
2017-10-29T19:13:18.941Z,6.73
2017-10-29T19:15:45.644Z,7.60
2017-10-29T19:18:12.251Z,11.43
2017-10-29T19:20:38.495Z,16.60
2017-10-29T19:23:05.113Z,24.93
2017-10-29T19:25:31.755Z,11.60
2017-10-29T19:27:58.165Z,11.60
2017-10-29T19:30:24.839Z,21.03
2017-10-29T19:32:51.230Z,8.43
2017-10-29T19:35:17.671Z,11.17
2017-10-29T19:37:44.087Z,10.23
2017-10-29T19:40:10.536Z,21.33
2017-10-29T19:42:36.971Z,9.80
2017-10-29T19:45:03.639Z,6.87
2017-10-29T19:47:30.290Z,6.50
2017-10-29T19:49:56.896Z,6.77
2017-10-29T19:52:23.560Z,9.40
2017-10-29T19:54:49.997Z,3.57
2017-10-29T19:57:16.639Z,7.97
2017-10-29T19:59:43.062Z,3.33
2017-10-29T20:02:09.554Z,3.97
2017-10-29T20:04:35.993Z,7.33
2017-10-29T20:07:02.515Z,5.30
2017-10-29T20:09:28.796Z,7.20
2017-10-29T20:11:55.068Z,4.37
2017-10-29T20:14:21.512Z,3.70
2017-10-29T20:16:47.956Z,7.43
2017-10-29T20:19:14.538Z,3.60
2017-10-29T20:21:40.962Z,2.90
2017-10-29T20:24:07.188Z,1.87
2017-10-29T20:26:33.547Z,2.83
2017-10-29T20:29:00.013Z,4.20
2017-10-29T20:31:26.457Z,5.23
2017-10-29T20:33:52.869Z,13.70
2017-10-29T20:36:19.562Z,3.17
2017-10-29T20:38:45.960Z,3.03
2017-10-29T20:41:12.425Z,1.30
2017-10-29T20:43:38.918Z,3.43
2017-10-29T20:46:05.508Z,3.40
2017-10-29T20:48:31.926Z,1.00
2017-10-29T20:50:58.318Z,1.30
2017-10-29T20:53:25.017Z,3.63
2017-10-29T20:55:51.455Z,10.00
2017-10-29T20:58:17.945Z,2.50
2017-10-29T21:00:44.318Z,15.73
2017-10-29T21:03:10.925Z,1.87
2017-10-29T21:05:37.590Z,5.53
2017-10-29T21:08:03.963Z,1.20
2017-10-29T21:10:30.426Z,2.00
2017-10-29T21:12:56.942Z,2.03
2017-10-29T21:15:23.317Z,3.37
2017-10-29T21:17:49.755Z,1.20
2017-10-29T21:20:16.243Z,4.10
2017-10-29T21:22:42.681Z,1.57
2017-10-29T21:25:09.263Z,2.80
2017-10-29T21:27:35.895Z,1.93
2017-10-29T21:30:02.138Z,4.73
2017-10-29T21:32:28.746Z,3.73
2017-10-29T21:34:55.144Z,6.23
2017-10-29T21:37:21.580Z,4.30
2017-10-29T21:39:47.856Z,2.70
2017-10-29T21:42:14.345Z,1.20
2017-10-29T21:44:40.732Z,10.97
2017-10-29T21:47:07.365Z,1.50
2017-10-29T21:49:33.989Z,6.17
2017-10-29T21:52:00.244Z,1.30
2017-10-29T21:54:26.602Z,2.07
2017-10-29T21:56:52.904Z,5.73
2017-10-29T21:59:19.413Z,3.00
2017-10-29T22:01:45.762Z,2.30
2017-10-29T22:04:11.997Z,5.30
2017-10-29T22:06:38.607Z,5.77
2017-10-29T22:09:05.000Z,3.37
2017-10-29T22:11:31.493Z,2.53
2017-10-29T22:13:57.788Z,1.40
2017-10-29T22:16:24.157Z,1.53
2017-10-29T22:18:50.776Z,7.10
2017-10-29T22:21:17.229Z,8.53
2017-10-29T22:23:43.868Z,1.53
2017-10-29T22:26:10.300Z,3.80
2017-10-29T22:28:36.543Z,3.00
2017-10-29T22:31:02.902Z,8.70
2017-10-29T22:33:29.196Z,8.37
2017-10-29T22:35:55.816Z,3.80
2017-10-29T22:38:22.205Z,3.57
2017-10-29T22:40:48.902Z,5.90
2017-10-29T22:43:15.515Z,6.13
2017-10-29T22:45:41.764Z,18.60
2017-10-29T22:48:08.148Z,1.30
2017-10-29T22:50:34.592Z,10.00
2017-10-29T22:53:01.007Z,2.33
2017-10-29T22:55:27.293Z,2.97
2017-10-29T22:57:53.500Z,9.77
2017-10-29T23:00:19.901Z,8.77
2017-10-29T23:02:46.182Z,3.60
2017-10-29T23:05:12.818Z,2.30
2017-10-29T23:07:39.056Z,6.83
2017-10-29T23:10:05.553Z,3.73
2017-10-29T23:12:31.924Z,3.60
2017-10-29T23:14:58.534Z,5.40
2017-10-29T23:17:25.197Z,2.93
2017-10-29T23:19:51.625Z,1.53
2017-10-29T23:22:17.860Z,5.73
2017-10-29T23:24:44.118Z,7.23
2017-10-29T23:27:10.393Z,5.03
2017-10-29T23:29:36.611Z,7.70
2017-10-29T23:32:02.980Z,4.13
2017-10-29T23:34:29.651Z,5.10
2017-10-29T23:36:55.862Z,4.53
2017-10-29T23:39:22.141Z,3.00
2017-10-29T23:41:48.359Z,4.60
2017-10-29T23:44:14.594Z,6.47
2017-10-29T23:46:40.966Z,4.43
2017-10-29T23:49:07.187Z,4.10
2017-10-29T23:51:33.418Z,2.97
2017-10-29T23:53:59.700Z,10.23
2017-10-29T23:56:26.092Z,9.00
2017-10-29T23:58:52.316Z,5.17
